createdAt,value
2022-07-26T00:00:51.208Z,11.20
2022-07-26T00:05:56.355Z,7.43
2022-07-26T00:11:00.038Z,8.00
2022-07-26T00:16:11.229Z,6.07
2022-07-26T00:21:16.176Z,6.43
2022-07-26T00:26:19.913Z,6.97
2022-07-26T00:31:23.997Z,6.05
2022-07-26T00:36:29.840Z,6.13
2022-07-26T00:41:33.521Z,5.65
2022-07-26T00:46:37.267Z,12.25
2022-07-26T00:51:42.673Z,11.30
2022-07-26T00:56:54.865Z,11.43
2022-07-26T01:01:59.142Z,13.25
2022-07-26T01:07:15.058Z,12.63
2022-07-26T01:12:19.717Z,7.00
2022-07-26T01:17:23.608Z,8.27
2022-07-26T01:22:28.624Z,8.02
2022-07-26T01:27:34.474Z,9.23
2022-07-26T01:32:39.377Z,6.78
2022-07-26T01:37:44.561Z,5.60
2022-07-26T01:42:48.239Z,5.45
2022-07-26T01:47:52.063Z,4.78
2022-07-26T01:52:57.137Z,9.00
2022-07-26T01:58:00.805Z,7.90
2022-07-26T02:03:04.780Z,9.15
2022-07-26T02:08:09.808Z,8.20
2022-07-26T02:13:14.531Z,10.98
2022-07-26T02:18:18.603Z,10.23
2022-07-26T02:23:24.230Z,6.90
2022-07-26T02:28:28.162Z,6.22
2022-07-26T02:33:31.735Z,9.55
2022-07-26T02:38:36.761Z,6.68
2022-07-26T02:43:40.404Z,8.05
2022-07-26T02:48:44.226Z,11.45
2022-07-26T02:53:49.372Z,8.77
2022-07-26T02:58:53.294Z,17.38
2022-07-26T03:03:59.671Z,11.93
2022-07-26T03:09:08.009Z,12.65
2022-07-26T03:14:15.093Z,15.88
2022-07-26T03:19:25.017Z,8.70
2022-07-26T03:24:34.249Z,10.50
2022-07-26T03:29:41.619Z,12.90
2022-07-26T03:34:48.591Z,7.18
2022-07-26T03:39:56.924Z,13.85
2022-07-26T03:45:05.659Z,13.90
2022-07-26T03:50:14.183Z,11.23
2022-07-26T03:55:39.616Z,9.88
2022-07-26T04:00:46.778Z,9.15
2022-07-26T04:05:54.064Z,6.85
2022-07-26T04:11:04.558Z,10.07
2022-07-26T04:16:11.826Z,8.52
2022-07-26T04:21:18.669Z,7.40
2022-07-26T04:26:26.986Z,9.77
2022-07-26T04:31:36.259Z,8.82
2022-07-26T04:36:43.604Z,8.73
2022-07-26T04:41:52.220Z,9.10
2022-07-26T04:46:59.473Z,6.32
2022-07-26T04:52:06.415Z,11.57
2022-07-26T04:57:14.838Z,8.95
2022-07-26T05:02:21.980Z,10.43
2022-07-26T05:07:29.083Z,9.90
2022-07-26T05:12:37.396Z,14.13
2022-07-26T05:17:45.729Z,12.38
2022-07-26T05:22:52.638Z,8.07
2022-07-26T05:28:01.237Z,7.32
2022-07-26T05:33:08.324Z,11.15
2022-07-26T05:38:15.397Z,14.32
2022-07-26T05:43:22.878Z,8.10
2022-07-26T05:48:29.901Z,10.23
2022-07-26T05:53:37.075Z,15.77
2022-07-26T05:58:45.902Z,8.65
2022-07-26T06:03:52.830Z,16.85
2022-07-26T06:08:59.680Z,17.25
2022-07-26T06:14:08.373Z,12.43
2022-07-26T06:19:15.906Z,11.80
2022-07-26T06:24:24.388Z,7.70
2022-07-26T06:29:32.777Z,9.52
2022-07-26T06:34:40.189Z,10.10
2022-07-26T06:39:47.088Z,12.02
2022-07-26T06:44:55.605Z,14.18
2022-07-26T06:50:02.622Z,8.43
2022-07-26T06:55:12.540Z,8.30
2022-07-26T07:00:21.862Z,7.15
2022-07-26T07:05:31.212Z,9.63
2022-07-26T07:10:38.531Z,6.93
2022-07-26T07:15:45.728Z,9.77
2022-07-26T07:20:51.868Z,7.50
2022-07-26T07:25:56.767Z,5.63
2022-07-26T07:31:03.873Z,7.50
2022-07-26T07:36:09.502Z,8.02
2022-07-26T07:41:15.966Z,6.30
2022-07-26T07:46:24.742Z,6.82
2022-07-26T07:51:33.033Z,6.05
2022-07-26T07:56:43.805Z,11.93
2022-07-26T08:01:52.620Z,8.63
2022-07-26T08:06:59.772Z,4.53
2022-07-26T08:12:06.646Z,5.07
2022-07-26T08:17:15.637Z,7.25
2022-07-26T08:22:22.498Z,9.43
2022-07-26T08:27:29.958Z,7.78
2022-07-26T08:32:37.983Z,7.70
2022-07-26T08:37:44.887Z,5.38
2022-07-26T08:42:52.803Z,6.30
2022-07-26T08:48:18.794Z,6.60
2022-07-26T08:53:26.618Z,10.23
2022-07-26T08:58:36.006Z,6.65
2022-07-26T09:03:44.647Z,6.13
2022-07-26T09:08:53.977Z,8.13
2022-07-26T09:14:03.231Z,11.07
2022-07-26T09:19:24.279Z,6.03
2022-07-26T09:24:35.889Z,8.50
2022-07-26T09:29:50.496Z,7.38
2022-07-26T09:35:37.037Z,6.32
2022-07-26T09:40:38.707Z,5.43
2022-07-26T09:45:44.499Z,9.88
2022-07-26T09:50:51.913Z,7.68
2022-07-26T09:55:58.117Z,9.25
2022-07-26T10:01:02.618Z,6.88
2022-07-26T10:06:08.004Z,9.00
2022-07-26T10:11:14.541Z,9.70
2022-07-26T10:16:33.806Z,11.20
2022-07-26T10:21:42.259Z,14.80
2022-07-26T10:26:49.266Z,8.48
2022-07-26T10:32:21.920Z,9.85
2022-07-26T10:37:30.882Z,14.30
2022-07-26T10:42:46.853Z,11.48
2022-07-26T10:48:17.191Z,8.55
2022-07-26T10:53:27.873Z,14.55
2022-07-26T10:58:45.054Z,11.55
2022-07-26T11:03:52.077Z,10.93
2022-07-26T11:09:01.075Z,16.48
2022-07-26T11:14:09.784Z,17.25
2022-07-26T11:19:18.661Z,15.98
2022-07-26T11:24:27.628Z,16.75
2022-07-26T11:29:38.471Z,15.95
2022-07-26T11:34:48.875Z,15.80
2022-07-26T11:39:57.279Z,53.53
2022-07-26T11:45:04.480Z,18.05
2022-07-26T11:50:18.256Z,19.42
2022-07-26T11:55:31.909Z,28.65
2022-07-26T12:00:39.094Z,11.20
2022-07-26T12:06:03.285Z,17.60
2022-07-26T12:11:12.480Z,23.17
2022-07-26T12:16:41.175Z,36.78
2022-07-26T12:21:50.266Z,17.65
2022-07-26T12:27:09.616Z,14.80
2022-07-26T12:32:18.419Z,27.00
2022-07-26T12:37:37.694Z,20.20
2022-07-26T12:43:01.169Z,47.58
2022-07-26T12:48:11.107Z,18.05
2022-07-26T12:53:15.429Z,24.55
2022-07-26T12:58:22.887Z,25.35
2022-07-26T13:03:29.756Z,20.70
2022-07-26T13:08:37.726Z,23.70
2022-07-26T13:13:45.517Z,20.20
2022-07-26T13:18:52.004Z,19.38
2022-07-26T13:23:59.720Z,18.40
2022-07-26T13:29:08.206Z,13.52
2022-07-26T13:34:15.865Z,15.63
2022-07-26T13:39:22.510Z,17.98
2022-07-26T13:44:30.909Z,17.75
2022-07-26T13:49:38.068Z,19.50
2022-07-26T13:54:45.127Z,22.23
2022-07-26T13:59:53.733Z,25.98
2022-07-26T14:05:05.294Z,18.17
2022-07-26T14:10:16.567Z,16.98
2022-07-26T14:21:16.608Z,17.77
2022-07-26T14:26:23.596Z,20.63
2022-07-26T14:31:33.139Z,25.00
2022-07-26T14:36:39.848Z,28.45
2022-07-26T14:41:47.074Z,22.27
2022-07-26T14:46:55.308Z,31.00
2022-07-26T14:52:03.227Z,25.73
2022-07-26T14:57:10.292Z,27.60
2022-07-26T15:02:19.017Z,28.42
2022-07-26T15:07:26.094Z,25.45
2022-07-26T15:12:34.319Z,28.30
2022-07-26T15:17:42.749Z,29.73
2022-07-26T15:22:49.912Z,25.85
2022-07-26T15:27:56.967Z,24.05
2022-07-26T15:33:05.389Z,26.90
2022-07-26T15:38:11.544Z,26.90
2022-07-26T15:43:23.911Z,31.02
2022-07-26T15:48:51.961Z,24.90
2022-07-26T15:53:59.432Z,27.50
2022-07-26T15:59:07.523Z,26.77
2022-07-26T16:04:15.356Z,23.95
2022-07-26T16:09:22.560Z,26.67
2022-07-26T16:14:29.914Z,23.13
2022-07-26T16:19:38.077Z,24.05
2022-07-26T16:24:45.271Z,22.70
2022-07-26T16:29:52.665Z,26.48
2022-07-26T16:35:01.181Z,21.60
2022-07-26T16:40:09.895Z,19.58
2022-07-26T16:45:18.378Z,23.08
2022-07-26T16:50:27.704Z,21.65
2022-07-26T16:55:34.744Z,23.05
2022-07-26T17:00:41.755Z,22.92
2022-07-26T17:05:49.956Z,18.67
2022-07-26T17:10:57.834Z,18.60
2022-07-26T17:16:05.048Z,20.58
2022-07-26T17:21:13.470Z,15.55
2022-07-26T17:26:21.019Z,19.95
2022-07-26T17:31:27.700Z,18.17
2022-07-26T17:36:36.387Z,17.23
2022-07-26T17:41:47.435Z,14.27
2022-07-26T17:46:57.938Z,9.32
2022-07-26T17:52:07.235Z,10.88
2022-07-26T17:57:14.365Z,9.70
2022-07-26T18:02:20.833Z,10.10
2022-07-26T18:07:29.305Z,10.18
2022-07-26T18:12:36.587Z,10.63
2022-07-26T18:17:41.402Z,8.75
2022-07-26T18:22:50.196Z,9.77
2022-07-26T18:27:54.750Z,9.23
2022-07-26T18:32:59.161Z,11.10
2022-07-26T18:38:04.494Z,11.23
2022-07-26T18:43:08.661Z,8.68
2022-07-26T18:48:12.448Z,6.65
2022-07-26T18:58:25.455Z,7.95
2022-07-26T19:03:34.851Z,7.65
2022-07-26T19:08:40.268Z,11.20
2022-07-26T19:13:43.998Z,8.70
2022-07-26T19:18:50.795Z,10.23
2022-07-26T19:23:57.979Z,10.02
2022-07-26T19:29:01.717Z,10.57
2022-07-26T19:34:05.376Z,7.20
2022-07-26T19:39:10.805Z,9.32
2022-07-26T19:44:14.987Z,8.60
2022-07-26T19:49:18.760Z,8.57
2022-07-26T19:54:23.880Z,12.77
2022-07-26T19:59:28.646Z,7.80
2022-07-26T20:04:32.582Z,14.88
2022-07-26T20:09:37.833Z,10.55
2022-07-26T20:14:41.660Z,9.10
2022-07-26T20:19:45.312Z,9.52
2022-07-26T20:24:55.226Z,8.45
2022-07-26T20:30:01.149Z,8.38
2022-07-26T20:35:05.690Z,8.20
2022-07-26T20:40:12.191Z,11.30
2022-07-26T20:45:16.182Z,10.27
2022-07-26T20:50:20.666Z,9.38
2022-07-26T20:55:25.949Z,12.20
2022-07-26T21:00:29.666Z,10.60
2022-07-26T21:05:33.387Z,14.85
2022-07-26T21:10:38.790Z,13.07
2022-07-26T21:15:42.617Z,14.38
2022-07-26T21:20:47.728Z,12.75
2022-07-26T21:26:00.777Z,14.93
2022-07-26T21:31:08.179Z,15.32
2022-07-26T21:36:11.934Z,15.07
2022-07-26T21:41:17.173Z,17.25
2022-07-26T21:46:20.903Z,16.43
2022-07-26T21:51:24.680Z,9.95
2022-07-26T21:56:29.859Z,16.05
2022-07-26T22:01:33.674Z,15.00
2022-07-26T22:06:38.112Z,11.95
2022-07-26T22:11:43.397Z,9.85
2022-07-26T22:16:47.784Z,12.88
2022-07-26T22:21:51.624Z,12.10
2022-07-26T22:26:56.644Z,14.20
2022-07-26T22:32:00.400Z,17.80
2022-07-26T22:37:04.119Z,18.27
2022-07-26T22:42:16.547Z,17.40
2022-07-26T22:47:20.370Z,26.48
2022-07-26T22:52:24.091Z,19.65
2022-07-26T22:57:29.128Z,17.13
2022-07-26T23:02:36.585Z,16.42
2022-07-26T23:07:40.789Z,16.98
2022-07-26T23:12:46.711Z,20.47
2022-07-26T23:17:50.475Z,21.95
2022-07-26T23:22:54.196Z,24.67
2022-07-26T23:27:59.617Z,21.48
2022-07-26T23:33:03.246Z,21.77
2022-07-26T23:38:06.836Z,24.15
2022-07-26T23:43:11.962Z,28.25
2022-07-26T23:48:15.691Z,27.83
2022-07-26T23:53:19.477Z,35.58
2022-07-26T23:58:31.855Z,27.10
